createdAt,value
2022-09-07T00:01:22.272Z,17.10
2022-09-07T00:03:55.865Z,6.20
2022-09-07T00:06:24.890Z,5.90
2022-09-07T00:08:53.473Z,6.70
2022-09-07T00:11:22.066Z,7.50
2022-09-07T00:13:50.587Z,5.60
2022-09-07T00:16:27.987Z,4.50
2022-09-07T00:19:00.302Z,4.20
2022-09-07T00:21:30.439Z,4.10
2022-09-07T00:23:59.142Z,4.10
2022-09-07T00:26:31.250Z,4.50
2022-09-07T00:29:02.735Z,4.90
2022-09-07T00:31:32.539Z,4.20
2022-09-07T00:34:03.031Z,7.00
2022-09-07T00:36:31.670Z,4.60
2022-09-07T00:39:00.254Z,3.30
2022-09-07T00:41:28.895Z,3.70
2022-09-07T00:44:20.187Z,6.30
2022-09-07T00:46:48.961Z,3.20
2022-09-07T00:49:22.257Z,5.80
2022-09-07T00:52:03.174Z,5.30
2022-09-07T00:54:41.564Z,3.30
2022-09-07T00:57:10.620Z,4.90
2022-09-07T00:59:51.887Z,7.80
2022-09-07T01:02:21.494Z,5.00
2022-09-07T01:04:57.828Z,5.80
2022-09-07T01:07:26.398Z,4.50
2022-09-07T01:09:56.892Z,5.10
2022-09-07T01:12:25.451Z,6.00
2022-09-07T01:14:56.013Z,5.10
2022-09-07T01:17:58.711Z,6.90
2022-09-07T01:21:20.777Z,5.40
2022-09-07T01:24:20.837Z,6.60
2022-09-07T01:27:38.138Z,4.30
2022-09-07T01:30:13.508Z,5.60
2022-09-07T01:32:53.754Z,3.60
2022-09-07T01:35:46.154Z,3.00
2022-09-07T01:38:29.381Z,3.30
2022-09-07T01:41:09.855Z,4.10
2022-09-07T01:44:06.051Z,8.10
2022-09-07T01:46:47.053Z,4.80
2022-09-07T01:49:44.395Z,7.20
2022-09-07T01:52:34.311Z,5.60
2022-09-07T01:55:15.866Z,3.50
2022-09-07T01:57:55.235Z,3.30
2022-09-07T02:00:24.958Z,4.40
2022-09-07T02:03:03.325Z,4.10
2022-09-07T02:05:41.673Z,6.00
2022-09-07T02:08:20.858Z,4.40
2022-09-07T02:10:57.051Z,3.50
2022-09-07T02:13:41.498Z,4.10
2022-09-07T02:18:57.372Z,4.90
2022-09-07T02:21:35.214Z,4.50
2022-09-07T02:24:29.437Z,4.70
2022-09-07T02:27:03.531Z,3.50
2022-09-07T02:29:32.823Z,3.40
2022-09-07T02:32:02.019Z,4.80
2022-09-07T02:34:32.186Z,4.00
2022-09-07T02:37:03.781Z,3.60
2022-09-07T02:39:32.622Z,4.50
2022-09-07T02:42:01.310Z,5.10
2022-09-07T02:44:35.426Z,3.10
2022-09-07T02:47:40.989Z,3.60
2022-09-07T02:50:30.966Z,2.90
2022-09-07T02:53:52.557Z,5.90
2022-09-07T02:57:04.278Z,3.80
2022-09-07T03:00:06.594Z,3.50
2022-09-07T03:02:46.970Z,4.30
2022-09-07T03:05:22.103Z,3.70
2022-09-07T03:08:04.570Z,3.40
2022-09-07T03:10:34.536Z,6.30
2022-09-07T03:13:03.251Z,3.50
2022-09-07T03:15:32.069Z,3.70
2022-09-07T03:18:00.687Z,3.00
2022-09-07T03:20:29.221Z,3.20
2022-09-07T03:22:57.969Z,3.80
2022-09-07T03:25:26.826Z,5.40
2022-09-07T03:27:55.464Z,6.00
2022-09-07T03:30:24.099Z,5.10
2022-09-07T03:32:52.711Z,4.20
2022-09-07T03:35:21.402Z,3.00
2022-09-07T03:37:50.412Z,4.20
2022-09-07T03:40:18.978Z,4.30
2022-09-07T03:42:51.250Z,6.20
2022-09-07T03:45:20.068Z,3.80
2022-09-07T03:47:49.566Z,3.30
2022-09-07T03:50:18.286Z,3.00
2022-09-07T03:52:46.975Z,3.70
2022-09-07T03:55:15.569Z,3.80
2022-09-07T03:57:44.196Z,3.20
2022-09-07T04:00:15.095Z,3.80
2022-09-07T04:02:43.756Z,3.40
2022-09-07T04:05:12.608Z,4.10
2022-09-07T04:07:41.189Z,3.30
2022-09-07T04:10:09.965Z,4.60
2022-09-07T04:12:38.829Z,5.30
2022-09-07T04:15:08.095Z,4.60
2022-09-07T04:17:36.667Z,5.60
2022-09-07T04:20:06.023Z,3.40
2022-09-07T04:22:34.633Z,9.50
2022-09-07T04:25:03.253Z,3.40
2022-09-07T04:27:32.021Z,5.20
2022-09-07T04:30:00.600Z,6.60
2022-09-07T04:32:29.322Z,6.10
2022-09-07T04:34:57.918Z,3.90
2022-09-07T04:37:26.572Z,4.50
2022-09-07T04:39:55.261Z,2.70
2022-09-07T04:42:24.066Z,5.70
2022-09-07T04:44:52.599Z,4.50
2022-09-07T04:47:21.451Z,4.80
2022-09-07T04:49:53.441Z,5.00
2022-09-07T04:52:22.119Z,6.40
2022-09-07T04:54:51.135Z,4.10
2022-09-07T04:57:26.072Z,4.00
2022-09-07T04:59:55.259Z,5.70
2022-09-07T05:02:24.063Z,4.80
2022-09-07T05:04:53.103Z,5.50
2022-09-07T05:07:21.788Z,3.10
2022-09-07T05:09:50.697Z,3.00
2022-09-07T05:12:19.359Z,4.80
2022-09-07T05:14:47.917Z,3.40
2022-09-07T05:17:16.646Z,4.40
2022-09-07T05:19:45.288Z,3.30
2022-09-07T05:22:13.877Z,6.50
2022-09-07T05:24:42.430Z,3.60
2022-09-07T05:27:11.041Z,3.30
2022-09-07T05:32:28.398Z,5.40
2022-09-07T05:34:56.883Z,3.50
2022-09-07T05:37:26.195Z,6.00
2022-09-07T05:39:57.196Z,3.50
2022-09-07T05:42:27.160Z,3.30
2022-09-07T05:44:55.777Z,4.20
2022-09-07T05:47:24.809Z,3.50
2022-09-07T05:49:57.010Z,4.10
2022-09-07T05:52:26.276Z,4.80
2022-09-07T05:55:07.503Z,4.20
2022-09-07T05:57:43.505Z,5.80
2022-09-07T06:00:14.772Z,4.70
2022-09-07T06:02:43.413Z,3.60
2022-09-07T06:05:12.852Z,7.60
2022-09-07T06:07:41.562Z,2.00
2022-09-07T06:12:58.916Z,4.10
2022-09-07T06:15:27.674Z,2.80
2022-09-07T06:17:56.483Z,3.10
2022-09-07T06:20:25.041Z,5.90
2022-09-07T06:22:53.567Z,5.30
2022-09-07T06:25:22.322Z,3.80
2022-09-07T06:27:52.318Z,4.80
2022-09-07T06:30:21.529Z,3.20
2022-09-07T06:32:50.100Z,4.10
2022-09-07T06:35:18.954Z,7.10
2022-09-07T06:37:47.964Z,4.50
2022-09-07T06:40:16.545Z,5.40
2022-09-07T06:42:45.182Z,7.10
2022-09-07T06:45:17.103Z,7.50
2022-09-07T06:47:45.742Z,5.90
2022-09-07T06:50:14.988Z,3.50
2022-09-07T06:55:32.790Z,3.60
2022-09-07T06:58:01.388Z,5.70
2022-09-07T07:00:30.077Z,3.30
2022-09-07T07:02:58.751Z,3.90
2022-09-07T07:05:27.461Z,7.00
2022-09-07T07:07:56.642Z,4.10
2022-09-07T07:10:25.602Z,4.70
2022-09-07T07:12:58.533Z,5.60
2022-09-07T07:15:31.210Z,6.90
2022-09-07T07:18:13.445Z,6.90
2022-09-07T07:20:48.142Z,5.30
2022-09-07T07:23:16.605Z,5.00
2022-09-07T07:25:45.158Z,5.00
2022-09-07T07:31:09.511Z,4.60
2022-09-07T07:33:39.547Z,3.90
2022-09-07T07:36:26.955Z,4.60
2022-09-07T07:44:20.905Z,5.20
2022-09-07T07:46:52.024Z,3.50
2022-09-07T07:49:21.016Z,6.30
2022-09-07T07:54:37.866Z,8.20
2022-09-07T07:57:06.541Z,4.70
2022-09-07T07:59:35.782Z,4.40
2022-09-07T08:02:09.127Z,4.90
2022-09-07T08:04:37.663Z,4.30
2022-09-07T08:07:10.464Z,3.80
2022-09-07T08:09:45.755Z,7.20
2022-09-07T08:12:19.575Z,4.10
2022-09-07T08:14:49.133Z,4.60
2022-09-07T08:17:17.956Z,4.30
2022-09-07T08:19:46.273Z,3.30
2022-09-07T08:22:14.957Z,6.20
2022-09-07T08:24:43.431Z,4.40
2022-09-07T08:27:11.694Z,8.00
2022-09-07T08:29:40.073Z,5.00
2022-09-07T08:32:08.985Z,7.60
2022-09-07T08:34:37.577Z,4.90
2022-09-07T08:37:05.889Z,6.60
2022-09-07T08:39:34.914Z,3.90
2022-09-07T08:42:19.868Z,5.20
2022-09-07T08:45:04.547Z,4.80
2022-09-07T08:47:41.298Z,4.70
2022-09-07T08:50:18.837Z,2.60
2022-09-07T08:52:51.514Z,6.10
2022-09-07T08:55:28.918Z,4.80
2022-09-07T08:58:27.083Z,3.30
2022-09-07T09:06:50.187Z,4.40
2022-09-07T09:10:02.609Z,4.70
2022-09-07T09:12:57.418Z,5.20
2022-09-07T09:15:40.535Z,4.90
2022-09-07T09:18:38.960Z,6.20
2022-09-07T09:21:18.448Z,3.60
2022-09-07T09:23:52.960Z,4.80
2022-09-07T09:26:31.567Z,4.10
2022-09-07T09:29:21.083Z,7.20
2022-09-07T09:31:50.687Z,4.80
2022-09-07T09:34:23.896Z,4.00
2022-09-07T09:36:57.205Z,5.80
2022-09-07T09:39:37.793Z,4.10
2022-09-07T09:42:12.203Z,4.70
2022-09-07T09:44:42.176Z,3.90
2022-09-07T09:47:33.920Z,5.70
2022-09-07T09:53:26.715Z,4.30
2022-09-07T09:55:56.136Z,4.10
2022-09-07T10:01:34.650Z,5.50
2022-09-07T10:04:21.526Z,4.60
2022-09-07T10:06:56.107Z,4.10
2022-09-07T10:09:41.390Z,7.10
2022-09-07T10:12:32.393Z,5.80
2022-09-07T10:15:03.853Z,4.80
2022-09-07T10:17:40.509Z,4.30
2022-09-07T10:20:17.581Z,4.60
2022-09-07T10:22:51.931Z,4.80
2022-09-07T10:25:41.412Z,4.00
2022-09-07T10:28:12.942Z,5.30
2022-09-07T10:31:18.303Z,5.80
2022-09-07T10:34:33.044Z,2.60
2022-09-07T10:37:18.623Z,4.40
2022-09-07T10:40:10.932Z,6.00
2022-09-07T10:45:57.183Z,7.20
2022-09-07T10:48:51.458Z,4.50
2022-09-07T10:51:44.564Z,4.70
2022-09-07T10:54:37.072Z,4.70
2022-09-07T10:57:30.341Z,4.90
2022-09-07T11:00:11.484Z,4.90
2022-09-07T11:03:25.298Z,4.10
2022-09-07T11:06:08.741Z,3.10
2022-09-07T11:09:16.609Z,4.20
2022-09-07T11:12:05.637Z,3.80
2022-09-07T11:14:50.774Z,4.30
2022-09-07T11:17:25.335Z,3.60
2022-09-07T11:20:15.924Z,3.20
2022-09-07T11:23:04.806Z,15.50
2022-09-07T11:26:11.592Z,8.70
2022-09-07T11:32:13.084Z,8.90
2022-09-07T11:34:52.230Z,3.30
2022-09-07T11:37:47.065Z,4.10
2022-09-07T11:40:27.542Z,5.00
2022-09-07T11:43:13.427Z,3.20
2022-09-07T11:45:46.169Z,6.30
2022-09-07T11:48:31.194Z,3.00
2022-09-07T11:51:09.427Z,5.80
2022-09-07T11:53:45.907Z,4.80
2022-09-07T11:56:45.579Z,5.60
2022-09-07T11:59:17.446Z,3.10
2022-09-07T12:02:42.149Z,3.50
2022-09-07T12:05:42.650Z,5.70
2022-09-07T12:08:50.720Z,5.30
2022-09-07T12:11:25.006Z,5.50
2022-09-07T12:14:21.841Z,4.10
2022-09-07T12:17:31.244Z,3.70
2022-09-07T12:20:20.322Z,5.20
2022-09-07T12:23:22.517Z,4.40
2022-09-07T12:25:52.722Z,4.00
2022-09-07T12:28:24.064Z,4.30
2022-09-07T12:31:57.370Z,8.10
2022-09-07T12:34:32.650Z,4.00
2022-09-07T12:37:22.801Z,4.90
2022-09-07T12:39:51.283Z,3.50
2022-09-07T12:42:37.500Z,6.10
2022-09-07T12:45:31.093Z,4.10
2022-09-07T12:48:23.764Z,4.90
2022-09-07T12:54:33.029Z,4.80
2022-09-07T12:57:54.741Z,6.40
2022-09-07T13:00:43.647Z,5.80
2022-09-07T13:03:52.695Z,5.10
2022-09-07T13:07:06.293Z,5.90
2022-09-07T13:09:37.726Z,4.40
2022-09-07T13:15:41.758Z,8.10
2022-09-07T13:18:31.648Z,4.70
2022-09-07T13:21:08.968Z,5.20
2022-09-07T13:23:43.394Z,5.10
2022-09-07T13:26:51.163Z,5.20
2022-09-07T13:29:32.449Z,4.30
2022-09-07T13:35:26.441Z,4.80
2022-09-07T13:38:03.848Z,3.60
2022-09-07T13:40:45.503Z,3.30
2022-09-07T13:43:20.446Z,5.50
2022-09-07T13:45:54.774Z,5.40
2022-09-07T13:48:36.777Z,3.90
2022-09-07T13:51:38.001Z,4.30
2022-09-07T13:55:01.571Z,4.00
2022-09-07T13:58:13.847Z,4.30
2022-09-07T14:01:03.207Z,4.70
2022-09-07T14:03:44.693Z,5.00
2022-09-07T14:06:27.998Z,4.20
2022-09-07T14:09:14.967Z,4.50
2022-09-07T14:11:52.788Z,4.80
2022-09-07T14:14:30.552Z,4.60
2022-09-07T14:17:01.934Z,5.30
2022-09-07T14:19:42.086Z,5.90
2022-09-07T14:22:13.492Z,3.70
2022-09-07T14:24:52.106Z,5.60
2022-09-07T14:27:48.317Z,6.50
2022-09-07T14:30:19.454Z,4.60
2022-09-07T14:32:50.734Z,7.10
2022-09-07T14:35:23.517Z,4.70
2022-09-07T14:37:53.238Z,4.30
2022-09-07T14:40:25.670Z,8.40
2022-09-07T14:42:56.132Z,3.30
2022-09-07T14:45:24.324Z,5.60
2022-09-07T14:47:55.652Z,4.60
2022-09-07T14:50:34.399Z,5.30
2022-09-07T14:56:10.402Z,7.20
2022-09-07T14:58:38.887Z,6.70
2022-09-07T15:01:39.388Z,3.70
2022-09-07T15:04:20.259Z,6.10
2022-09-07T15:07:04.032Z,4.20
2022-09-07T15:09:37.960Z,5.90
2022-09-07T15:14:44.460Z,4.50
2022-09-07T15:17:47.467Z,5.40
2022-09-07T15:20:37.387Z,6.30
2022-09-07T15:23:19.539Z,5.10
2022-09-07T15:25:53.777Z,3.50
2022-09-07T15:34:19.863Z,4.20
2022-09-07T15:36:53.326Z,7.80
2022-09-07T15:39:26.789Z,5.80
2022-09-07T15:41:56.019Z,5.70
2022-09-07T15:44:27.925Z,9.20
2022-09-07T15:49:50.293Z,5.40
2022-09-07T15:52:19.948Z,4.40
2022-09-07T15:54:48.208Z,5.00
2022-09-07T16:00:06.634Z,5.10
2022-09-07T16:05:31.445Z,6.50
2022-09-07T16:10:55.311Z,10.00
2022-09-07T16:13:24.604Z,4.90
2022-09-07T16:15:53.211Z,5.80
2022-09-07T16:18:21.954Z,7.60
2022-09-07T16:20:54.029Z,5.50
2022-09-07T16:23:22.533Z,4.20
2022-09-07T16:26:00.171Z,9.10
2022-09-07T16:28:29.491Z,5.40
2022-09-07T16:30:58.119Z,5.70
2022-09-07T16:33:33.043Z,6.20
2022-09-07T16:36:10.319Z,9.00
2022-09-07T16:38:44.036Z,4.80
2022-09-07T16:41:21.300Z,6.70
2022-09-07T16:43:50.552Z,7.00
2022-09-07T16:46:22.677Z,5.30
2022-09-07T16:48:52.115Z,5.30
2022-09-07T16:51:22.952Z,5.90
2022-09-07T16:53:54.778Z,7.00
2022-09-07T16:56:27.044Z,5.30
2022-09-07T16:58:59.434Z,16.30
2022-09-07T17:01:35.039Z,10.70
2022-09-07T17:04:09.884Z,7.20
2022-09-07T17:06:40.579Z,8.40
2022-09-07T17:09:09.151Z,7.90
2022-09-07T17:11:37.853Z,9.70
2022-09-07T17:14:07.272Z,6.30
2022-09-07T17:16:39.908Z,8.80
2022-09-07T17:22:01.271Z,5.70
2022-09-07T17:24:32.383Z,6.30
2022-09-07T17:27:01.974Z,8.20
2022-09-07T17:29:33.849Z,6.50
2022-09-07T17:34:55.679Z,8.20
2022-09-07T17:37:24.348Z,8.00
2022-09-07T17:39:53.771Z,6.80
2022-09-07T17:42:22.630Z,7.50
2022-09-07T17:44:54.381Z,6.50
2022-09-07T17:47:22.981Z,7.60
2022-09-07T17:49:51.549Z,8.50
2022-09-07T17:52:20.211Z,7.10
2022-09-07T17:54:48.677Z,6.70
2022-09-07T17:57:17.140Z,7.50
2022-09-07T18:02:38.392Z,13.80
2022-09-07T18:05:07.526Z,8.80
2022-09-07T18:07:36.093Z,6.90
2022-09-07T18:10:04.826Z,5.90
2022-09-07T18:12:33.485Z,10.00
2022-09-07T18:15:02.138Z,6.70
2022-09-07T18:17:30.918Z,5.70
2022-09-07T18:19:59.386Z,9.60
2022-09-07T18:22:27.801Z,8.30
2022-09-07T18:24:56.331Z,7.90
2022-09-07T18:27:26.285Z,5.80
2022-09-07T18:29:54.880Z,8.20
2022-09-07T18:32:23.771Z,7.80
2022-09-07T18:34:54.827Z,8.60
2022-09-07T18:37:24.025Z,9.40
2022-09-07T18:39:52.700Z,8.80
2022-09-07T18:42:22.315Z,6.50
2022-09-07T18:47:40.643Z,6.40
2022-09-07T18:50:10.233Z,9.00
2022-09-07T18:52:59.125Z,7.30
2022-09-07T18:55:27.885Z,11.60
2022-09-07T18:57:56.409Z,10.10
2022-09-07T19:00:24.994Z,8.00
2022-09-07T19:02:53.387Z,9.90
2022-09-07T19:08:10.792Z,12.20
2022-09-07T19:10:39.306Z,8.90
2022-09-07T19:13:08.045Z,9.90
2022-09-07T19:15:37.643Z,9.70
2022-09-07T19:18:08.048Z,10.30
2022-09-07T19:20:37.205Z,8.50
2022-09-07T19:23:07.009Z,9.90
2022-09-07T19:25:41.209Z,10.00
2022-09-07T19:30:38.179Z,10.20
2022-09-07T19:33:10.392Z,9.10
2022-09-07T19:35:39.190Z,11.10
2022-09-07T19:38:07.636Z,9.00
2022-09-07T19:40:36.186Z,8.90
2022-09-07T19:43:05.415Z,8.80
2022-09-07T19:45:38.927Z,7.40
2022-09-07T19:48:07.461Z,8.90
2022-09-07T19:50:36.113Z,11.20
2022-09-07T19:53:04.525Z,10.00
2022-09-07T19:55:33.030Z,8.10
2022-09-07T19:58:01.685Z,24.20
2022-09-07T20:00:30.857Z,8.40
2022-09-07T20:02:59.317Z,10.00
2022-09-07T20:05:31.209Z,13.80
2022-09-07T20:07:59.995Z,9.30
2022-09-07T20:10:28.488Z,9.50
2022-09-07T20:12:56.926Z,8.30
2022-09-07T20:15:26.705Z,11.00
2022-09-07T20:17:55.427Z,8.90
2022-09-07T20:20:24.207Z,12.60
2022-09-07T20:22:52.809Z,14.30
2022-09-07T20:25:21.662Z,11.40
2022-09-07T20:27:50.233Z,10.10
2022-09-07T20:30:18.747Z,11.40
2022-09-07T20:32:47.969Z,7.00
2022-09-07T20:35:16.786Z,9.20
2022-09-07T20:37:45.352Z,8.20
2022-09-07T20:40:14.491Z,11.30
2022-09-07T20:42:43.047Z,9.50
2022-09-07T20:45:11.577Z,10.20
2022-09-07T20:47:40.129Z,12.90
2022-09-07T20:50:09.281Z,9.30
2022-09-07T20:52:37.750Z,10.40
2022-09-07T20:55:06.697Z,10.20
2022-09-07T20:57:38.100Z,10.30
2022-09-07T21:00:08.302Z,10.20
2022-09-07T21:02:37.274Z,7.60
2022-09-07T21:05:06.781Z,12.70
2022-09-07T21:07:37.796Z,8.00
2022-09-07T21:10:07.392Z,8.20
2022-09-07T21:12:35.913Z,9.50
2022-09-07T21:15:05.005Z,9.70
2022-09-07T21:17:33.498Z,9.50
2022-09-07T21:20:02.203Z,9.50
2022-09-07T21:22:32.190Z,7.70
2022-09-07T21:25:02.457Z,7.80
2022-09-07T21:27:38.090Z,8.60
2022-09-07T21:30:07.827Z,7.70
2022-09-07T21:32:36.399Z,8.50
2022-09-07T21:35:05.423Z,9.60
2022-09-07T21:37:34.085Z,8.30
2022-09-07T21:40:08.262Z,8.10
2022-09-07T21:45:07.744Z,7.80
2022-09-07T21:47:36.278Z,7.50
2022-09-07T21:50:06.000Z,6.60
2022-09-07T21:52:34.636Z,7.30
2022-09-07T21:55:03.245Z,8.80
2022-09-07T21:57:31.813Z,8.60
2022-09-07T22:00:00.689Z,7.00
2022-09-07T22:02:29.687Z,12.40
2022-09-07T22:04:58.168Z,10.00
2022-09-07T22:07:27.196Z,8.10
2022-09-07T22:09:55.849Z,7.80
2022-09-07T22:12:24.379Z,8.90
2022-09-07T22:14:53.038Z,8.80
2022-09-07T22:17:21.551Z,7.80
2022-09-07T22:19:50.405Z,8.30
2022-09-07T22:22:19.051Z,9.20
2022-09-07T22:24:48.065Z,6.70
2022-09-07T22:27:16.609Z,6.70
2022-09-07T22:29:45.462Z,9.10
2022-09-07T22:32:13.879Z,8.00
2022-09-07T22:34:42.441Z,8.00
2022-09-07T22:37:11.055Z,8.00
2022-09-07T22:39:39.818Z,10.30
2022-09-07T22:42:08.529Z,7.10
2022-09-07T22:44:37.120Z,9.00
2022-09-07T22:47:05.603Z,9.10
2022-09-07T22:49:34.338Z,7.90
2022-09-07T22:52:04.280Z,8.10
2022-09-07T22:54:32.851Z,7.20
2022-09-07T22:57:01.454Z,7.10
2022-09-07T22:59:30.193Z,7.90
2022-09-07T23:01:59.021Z,9.20
2022-09-07T23:04:31.544Z,10.20
2022-09-07T23:07:00.513Z,11.90
2022-09-07T23:09:29.097Z,12.10
2022-09-07T23:11:57.575Z,9.30
2022-09-07T23:14:26.199Z,7.30
2022-09-07T23:16:54.889Z,10.50
2022-09-07T23:19:23.671Z,7.50
2022-09-07T23:21:52.233Z,11.00
2022-09-07T23:24:21.159Z,12.40
2022-09-07T23:26:50.228Z,8.90
2022-09-07T23:29:20.837Z,10.00
2022-09-07T23:31:49.366Z,10.70
2022-09-07T23:34:17.900Z,9.50
2022-09-07T23:36:46.376Z,9.30
2022-09-07T23:39:14.896Z,9.70
2022-09-07T23:41:43.486Z,11.60
2022-09-07T23:44:11.981Z,7.70
2022-09-07T23:46:40.617Z,10.70
2022-09-07T23:49:09.174Z,8.90
2022-09-07T23:51:37.668Z,12.60
2022-09-07T23:54:06.288Z,11.00
2022-09-07T23:56:38.058Z,13.10
2022-09-07T23:59:06.798Z,11.10
